Time;durP1;ratioP1;P1;durP2;ratioP2;P2;SDS_P1;SDS_P2;PMS_P1;PMS_P2;Temp;Humidity;BMP_temperature;BMP_pressure;BME280_temperature;BME280_humidity;BME280_pressure;Samples;Min_cycle;Max_cycle;Signal;HPM_P1;HPM_P2
2021/09/24 00:02:12;;;;;;;46.03;24.30;;;231.00;2252.80;;;;;;4724490;29;20109;-86
2021/09/24 00:05:48;;;;;;;40.17;22.45;;;230.90;2252.80;;;;;;4817924;29;20046;-87
2021/09/24 00:09:20;;;;;;;26.90;16.83;;;230.90;2252.80;;;;;;4839364;29;20491;-86
2021/09/24 00:12:49;;;;;;;28.02;16.58;;;231.00;2252.80;;;;;;4796028;29;20181;-86
2021/09/24 00:19:23;;;;;;;24.70;15.98;;;230.90;2252.80;;;;;;4768400;30;20046;-88
2021/09/24 00:26:12;;;;;;;28.27;17.65;;;230.60;2252.80;;;;;;4807771;29;20574;-86
2021/09/24 00:36:09;;;;;;;17.50;13.02;;;230.50;2252.80;;;;;;4915549;29;20095;-87
2021/09/24 00:43:13;;;;;;;21.20;13.70;;;205.70;2252.80;;;;;;4992118;28;20041;-87
2021/09/24 00:56:23;;;;;;;22.23;15.05;;;230.50;2252.80;;;;;;5011455;28;20034;-86
2021/09/24 00:59:17;;;;;;;26.13;13.80;;;205.50;2252.80;;;;;;4998247;28;20085;-86
2021/09/24 01:02:10;;;;;;;22.60;15.50;;;205.50;2252.80;;;;;;5010885;28;20092;-86
2021/09/24 01:05:11;;;;;;;22.90;13.60;;;205.30;2252.80;;;;;;5011236;28;20042;-87
2021/09/24 01:08:14;;;;;;;21.50;13.35;;;230.40;2252.80;;;;;;5007148;28;20061;-87
2021/09/24 01:11:49;;;;;;;19.35;14.52;;;230.50;2252.80;;;;;;4991620;28;20222;-86
2021/09/24 01:14:32;;;;;;;22.52;14.10;;;230.50;2252.80;;;;;;4977883;28;20030;-87
2021/09/24 01:17:00;;;;;;;;;;;205.60;2252.80;;;;;;4998254;28;20505;-87
2021/09/24 01:20:06;;;;;;;21.00;13.30;;;205.60;2252.80;;;;;;5033671;28;19948;-87
2021/09/24 01:23:16;;;;;;;19.08;13.88;;;230.40;2252.80;;;;;;5029547;28;20040;-87
2021/09/24 01:26:19;;;;;;;27.67;16.53;;;230.50;2252.80;;;;;;5001036;28;20116;-87
2021/09/24 01:29:06;;;;;;;22.83;13.40;;;205.70;2252.80;;;;;;5010718;28;20303;-86
2021/09/24 01:32:02;;;;;;;22.75;14.55;;;230.40;2252.80;;;;;;5011224;28;20061;-86
2021/09/24 01:35:02;;;;;;;28.23;16.10;;;230.40;2252.80;;;;;;5009633;28;20513;-87
2021/09/24 01:37:43;;;;;;;23.48;14.48;;;205.70;2252.80;;;;;;4993074;28;20459;-86
2021/09/24 01:40:17;;;;;;;25.38;14.93;;;205.70;2252.80;;;;;;4986684;28;20033;-87
2021/09/24 01:43:01;;;;;;;19.25;14.40;;;230.40;2252.80;;;;;;5033984;28;20441;-87
2021/09/24 01:45:52;;;;;;;19.88;15.05;;;230.40;2252.80;;;;;;5019367;28;20494;-86
2021/09/24 01:48:54;;;;;;;21.90;15.75;;;230.40;2252.80;;;;;;5034401;28;20057;-86
2021/09/24 01:51:22;;;;;;;28.70;17.40;;;205.50;2252.80;;;;;;5028202;28;20108;-87
2021/09/24 01:53:59;;;;;;;33.25;18.02;;;205.70;2252.80;;;;;;5017576;28;20036;-87
2021/09/24 01:56:47;;;;;;;27.20;16.42;;;230.40;2252.80;;;;;;5048868;28;20090;-87
2021/09/24 01:59:45;;;;;;;26.85;16.00;;;230.40;2252.80;;;;;;5013674;28;20485;-87
2021/09/24 02:02:22;;;;;;;24.88;17.45;;;230.50;2252.80;;;;;;5022176;28;20052;-87
2021/09/24 02:05:21;;;;;;;27.15;17.52;;;230.40;2252.80;;;;;;5048901;28;20550;-86
2021/09/24 02:08:08;;;;;;;25.98;16.92;;;205.60;2252.80;;;;;;5033271;28;20041;-86
2021/09/24 02:10:52;;;;;;;24.35;16.23;;;230.40;2252.80;;;;;;5054881;28;20041;-86
2021/09/24 02:13:46;;;;;;;22.25;14.65;;;205.70;2252.80;;;;;;5056289;28;20033;-87
2021/09/24 02:16:39;;;;;;;20.45;14.77;;;205.60;2252.80;;;;;;5037761;28;20075;-87
2021/09/24 02:19:36;;;;;;;21.38;14.18;;;205.10;2252.80;;;;;;5055454;28;20029;-87
2021/09/24 02:25:30;;;;;;;17.67;12.05;;;205.50;2252.80;;;;;;5055517;28;20040;-86
2021/09/24 02:28:52;;;;;;;19.48;12.63;;;205.60;2252.80;;;;;;5038657;28;20025;-86
2021/09/24 02:31:51;;;;;;;21.67;12.40;;;230.40;2252.80;;;;;;5061066;28;20052;-87
2021/09/24 02:35:17;;;;;;;24.92;14.00;;;205.70;2252.80;;;;;;5050157;28;20116;-86
2021/09/24 02:38:44;;;;;;;24.30;14.60;;;205.70;2252.80;;;;;;5047265;28;20028;-87
2021/09/24 02:42:11;;;;;;;20.08;14.50;;;205.60;2252.80;;;;;;4967766;28;20411;-86
2021/09/24 02:44:56;;;;;;;20.95;14.05;;;205.20;2252.80;;;;;;4974086;28;20089;-87
2021/09/24 02:48:11;;;;;;;24.20;15.45;;;205.10;2252.80;;;;;;4993563;28;20502;-86
2021/09/24 02:51:20;;;;;;;19.40;14.15;;;205.10;2252.80;;;;;;5013368;28;20069;-86
2021/09/24 02:53:54;;;;;;;24.45;14.40;;;205.00;2252.80;;;;;;5012545;28;20034;-85
2021/09/24 02:56:37;;;;;;;22.33;14.35;;;204.90;2252.80;;;;;;5013615;28;20116;-85
2021/09/24 02:59:09;;;;;;;19.92;14.02;;;205.00;2252.80;;;;;;4997069;28;20030;-86
2021/09/24 03:01:52;;;;;;;22.42;13.13;;;205.20;2252.80;;;;;;5013084;28;20141;-85
2021/09/24 03:04:37;;;;;;;17.08;12.60;;;205.10;2252.80;;;;;;5012774;28;20115;-86
2021/09/24 03:07:39;;;;;;;22.17;14.68;;;205.30;2252.80;;;;;;5012931;28;20018;-86
2021/09/24 03:10:13;;;;;;;22.92;14.95;;;205.10;2252.80;;;;;;5008467;28;20060;-86
2021/09/24 03:13:21;;;;;;;20.02;14.13;;;205.00;2252.80;;;;;;5032947;28;20422;-87
2021/09/24 03:16:24;;;;;;;22.02;14.07;;;205.00;2252.80;;;;;;5024415;28;20172;-86
2021/09/24 03:19:04;;;;;;;22.38;14.57;;;205.20;2252.80;;;;;;5032846;28;20414;-86
2021/09/24 03:22:03;;;;;;;24.45;16.23;;;205.20;2252.80;;;;;;5031290;28;20087;-86
2021/09/24 03:24:41;;;;;;;23.08;15.77;;;205.20;2252.80;;;;;;5036942;28;20504;-85
2021/09/24 03:27:51;;;;;;;29.60;18.60;;;205.20;2252.80;;;;;;5036315;28;20037;-87
2021/09/24 03:30:35;;;;;;;28.77;18.13;;;205.30;2252.80;;;;;;5053879;28;20037;-86
2021/09/24 03:33:44;;;;;;;25.95;16.63;;;204.90;2252.80;;;;;;5054316;28;20055;-86
2021/09/24 03:36:52;;;;;;;31.83;15.10;;;204.90;2252.80;;;;;;5036153;28;20076;-85
2021/09/24 03:40:01;;;;;;;23.08;15.50;;;179.90;2252.80;;;;;;5053513;28;20086;-86
2021/09/24 03:43:12;;;;;;;18.30;13.45;;;180.10;2252.80;;;;;;5039613;28;20039;-85
2021/09/24 03:46:41;;;;;;;20.70;13.45;;;180.00;2252.80;;;;;;5053731;28;20032;-86
2021/09/24 03:49:51;;;;;;;23.33;12.73;;;179.80;2252.80;;;;;;5030253;28;20036;-86
2021/09/24 03:53:00;;;;;;;18.52;12.68;;;179.90;2252.80;;;;;;5031486;28;20037;-85
2021/09/24 03:56:10;;;;;;;20.58;13.60;;;179.70;2252.80;;;;;;5002861;28;20041;-85
2021/09/24 03:59:04;;;;;;;21.42;12.95;;;179.80;2252.80;;;;;;5031997;28;20600;-86
2021/09/24 04:01:40;;;;;;;20.63;13.43;;;179.70;2252.80;;;;;;4998929;28;20029;-85
2021/09/24 04:04:48;;;;;;;22.05;14.57;;;179.40;2252.80;;;;;;4999122;28;20041;-86
2021/09/24 04:07:39;;;;;;;19.85;11.77;;;179.60;2252.80;;;;;;4999389;28;20075;-86
2021/09/24 04:10:27;;;;;;;22.30;13.70;;;179.50;2252.80;;;;;;5048163;28;20049;-87
2021/09/24 04:13:44;;;;;;;23.25;13.85;;;179.40;2252.80;;;;;;5041339;28;20040;-86
2021/09/24 04:16:42;;;;;;;18.48;12.90;;;179.60;2252.80;;;;;;5035229;28;20049;-85
2021/09/24 04:19:31;;;;;;;18.65;12.93;;;179.70;2252.80;;;;;;5016655;28;20386;-86
2021/09/24 04:22:17;;;;;;;18.92;13.45;;;179.70;2252.80;;;;;;5031825;28;20370;-86
2021/09/24 04:24:45;;;;;;;25.35;14.13;;;179.70;2252.80;;;;;;4999122;28;20485;-87
2021/09/24 04:27:46;;;;;;;22.67;12.98;;;179.70;2252.80;;;;;;4954214;28;20064;-86
2021/09/24 04:30:55;;;;;;;22.58;14.40;;;179.80;2252.80;;;;;;5028917;28;20037;-86
2021/09/24 04:33:45;;;;;;;27.35;13.98;;;179.60;2252.80;;;;;;5015419;28;20056;-86
2021/09/24 04:36:48;;;;;;;20.27;14.05;;;179.70;2252.80;;;;;;4998763;28;20034;-86
2021/09/24 04:39:44;;;;;;;19.98;13.02;;;179.90;2252.80;;;;;;4998307;28;20034;-85
2021/09/24 04:42:56;;;;;;;22.05;13.52;;;179.80;2252.80;;;;;;4986364;28;20441;-86
2021/09/24 04:45:52;;;;;;;21.23;13.75;;;179.60;2252.80;;;;;;5031031;28;20060;-86
2021/09/24 04:48:43;;;;;;;22.98;14.68;;;179.60;2252.80;;;;;;4998421;28;20108;-86
2021/09/24 04:51:14;;;;;;;23.63;14.50;;;179.60;2252.80;;;;;;5028739;28;20056;-86
2021/09/24 04:54:16;;;;;;;22.05;14.00;;;179.30;2252.80;;;;;;5030587;28;20044;-86
2021/09/24 04:56:47;;;;;;;23.83;13.90;;;179.40;2252.80;;;;;;5031442;28;20409;-84
2021/09/24 04:59:16;;;;;;;25.33;14.20;;;179.40;2252.80;;;;;;5015611;28;20289;-84
2021/09/24 05:01:55;;;;;;;24.90;16.33;;;179.50;2252.80;;;;;;5015611;28;20022;-86
2021/09/24 05:05:20;;;;;;;22.40;15.45;;;179.80;2252.80;;;;;;5059148;28;20033;-85
2021/09/24 05:08:00;;;;;;;26.90;16.77;;;179.60;2252.80;;;;;;5076736;28;20020;-84
2021/09/24 05:10:49;;;;;;;30.95;17.98;;;179.70;2252.80;;;;;;5046411;28;20396;-85
2021/09/24 05:13:19;;;;;;;;;;;179.40;2252.80;;;;;;5073999;28;20040;-85
2021/09/24 05:15:51;;;;;;;23.88;17.00;;;179.20;2252.80;;;;;;5061743;28;20367;-85
2021/09/24 05:19:27;;;;;;;28.27;15.75;;;179.30;2252.80;;;;;;5074702;28;20369;-84
2021/09/24 05:28:50;;;;;;;21.08;14.55;;;179.50;2252.80;;;;;;5055766;28;20083;-83
2021/09/24 05:32:00;;;;;;;19.10;14.38;;;179.50;2252.80;;;;;;5069784;28;20036;-85
2021/09/24 05:35:07;;;;;;;26.08;15.13;;;179.80;2252.80;;;;;;5075856;28;20040;-85
2021/09/24 05:37:54;;;;;;;23.92;14.85;;;179.70;2252.80;;;;;;5026598;28;20451;-87
2021/09/24 05:40:44;;;;;;;22.40;13.85;;;179.70;2252.80;;;;;;5076438;28;20029;-85
2021/09/24 05:43:23;;;;;;;27.92;14.73;;;179.90;2252.80;;;;;;5072104;28;20059;-85
2021/09/24 05:45:51;;;;;;;19.55;14.15;;;179.80;2252.80;;;;;;5080709;28;20032;-83
2021/09/24 05:48:19;;;;;;;25.00;14.07;;;180.00;2252.80;;;;;;5064145;28;20025;-84
2021/09/24 05:51:04;;;;;;;22.25;15.70;;;179.90;2252.80;;;;;;5073413;28;20447;-84
2021/09/24 05:53:34;;;;;;;23.27;15.82;;;179.70;2252.80;;;;;;5048100;28;20033;-86
2021/09/24 05:56:13;;;;;;;23.42;16.73;;;179.60;2252.80;;;;;;5053042;28;20043;-85
2021/09/24 05:59:22;;;;;;;25.30;19.27;;;179.50;2252.80;;;;;;5081796;28;20025;-83
2021/09/24 06:02:20;;;;;;;27.48;20.02;;;179.60;2252.80;;;;;;5081976;28;20376;-84
2021/09/24 06:05:25;;;;;;;30.27;19.33;;;179.80;2252.80;;;;;;5081437;28;20222;-86
2021/09/24 06:08:13;;;;;;;24.52;16.98;;;179.90;2252.80;;;;;;5074143;28;20094;-85
2021/09/24 06:11:08;;;;;;;29.35;17.02;;;180.10;2252.80;;;;;;5058087;28;20029;-84
2021/09/24 06:14:21;;;;;;;24.33;16.70;;;180.00;2252.80;;;;;;5076057;28;20060;-85
2021/09/24 06:17:14;;;;;;;28.38;17.42;;;204.90;2252.80;;;;;;5039034;28;20033;-85
2021/09/24 06:19:50;;;;;;;23.92;18.73;;;205.00;2252.80;;;;;;5036745;28;20032;-84
2021/09/24 06:22:35;;;;;;;35.08;20.55;;;205.20;2252.80;;;;;;5053203;28;20037;-81
2021/09/24 06:25:14;;;;;;;30.33;20.55;;;205.20;2252.80;;;;;;5054088;28;20033;-85
2021/09/24 06:27:54;;;;;;;27.95;19.63;;;205.10;2252.80;;;;;;5055786;28;20068;-83
2021/09/24 06:30:24;;;;;;;30.55;20.27;;;205.10;2252.80;;;;;;5038146;28;20485;-84
2021/09/24 06:32:59;;;;;;;34.63;20.43;;;205.30;2252.80;;;;;;5070115;28;20028;-85
2021/09/24 06:35:49;;;;;;;26.25;18.58;;;205.40;2252.80;;;;;;5053338;28;20119;-84
2021/09/24 06:38:34;;;;;;;30.15;18.90;;;205.50;2252.80;;;;;;5053310;28;20043;-85
2021/09/24 06:41:07;;;;;;;29.45;17.77;;;205.50;2252.80;;;;;;5036346;28;20043;-84
2021/09/24 06:43:34;;;;;;;22.83;15.93;;;205.60;2252.80;;;;;;5036381;28;20025;-84
2021/09/24 06:46:40;;;;;;;24.15;15.02;;;230.40;2252.80;;;;;;5049593;28;20040;-85
2021/09/24 06:49:13;;;;;;;22.25;14.52;;;205.60;2252.80;;;;;;5057191;28;20464;-85
2021/09/24 06:51:49;;;;;;;26.63;14.65;;;205.70;2252.80;;;;;;5056850;28;20025;-85
2021/09/24 06:54:57;;;;;;;22.27;14.93;;;205.70;2252.80;;;;;;5057090;28;20052;-85
2021/09/24 06:58:07;;;;;;;27.48;17.27;;;230.60;2252.80;;;;;;5056796;28;20039;-85
2021/09/24 07:01:44;;;;;;;26.77;17.63;;;230.70;2252.80;;;;;;5012584;28;20030;-85
2021/09/24 07:04:54;;;;;;;;;;;;;;;;;;;;;
2021/09/24 07:07:52;;;;;;;29.70;18.50;;;230.90;2252.80;;;;;;4841961;29;20034;-85
2021/09/24 07:11:12;;;;;;;27.00;17.80;;;231.10;2252.80;;;;;;4845078;29;20128;-86
2021/09/24 07:14:49;;;;;;;28.42;18.77;;;231.30;2252.80;;;;;;4798858;29;20126;-85
2021/09/24 07:18:20;;;;;;;28.65;17.65;;;231.30;2252.80;;;;;;4833481;29;20046;-86
2021/09/24 07:20:51;;;;;;;24.98;17.95;;;256.10;2252.80;;;;;;4889849;29;20044;-87
2021/09/24 07:24:10;;;;;;;25.58;16.63;;;256.20;2252.80;;;;;;4921182;29;20051;-85
2021/09/24 07:27:05;;;;;;;32.75;20.98;;;256.30;2252.80;;;;;;4934435;29;20547;-85
2021/09/24 07:30:16;;;;;;;33.00;18.90;;;256.50;2252.80;;;;;;4918420;29;20040;-86
2021/09/24 07:33:17;;;;;;;24.85;17.30;;;256.80;2252.80;;;;;;4934697;29;20028;-85
2021/09/24 07:36:45;;;;;;;30.02;16.65;;;281.60;2278.40;;;;;;4916139;29;20028;-85
2021/09/24 07:40:17;;;;;;;23.45;15.38;;;281.70;2278.40;;;;;;4871564;29;20035;-86
2021/09/24 07:43:48;;;;;;;23.55;15.43;;;281.90;2278.40;;;;;;4896908;29;20056;-86
2021/09/24 07:47:13;;;;;;;22.77;13.48;;;282.20;2278.40;;;;;;4878203;29;20041;-86
2021/09/24 07:50:31;;;;;;;21.55;12.73;;;282.30;2278.40;;;;;;4847164;29;20044;-86
2021/09/24 07:53:44;;;;;;;18.85;12.60;;;282.40;2278.40;;;;;;4877263;29;20030;-85
2021/09/24 07:56:39;;;;;;;17.92;12.30;;;282.50;2278.40;;;;;;4877322;29;20033;-84
2021/09/24 08:00:06;;;;;;;18.45;12.20;;;307.20;2304.00;;;;;;4823215;29;20042;-85
2021/09/24 08:03:04;;;;;;;20.00;12.77;;;307.40;2304.00;;;;;;4854985;29;20034;-83
2021/09/24 08:06:39;;;;;;;14.65;11.55;;;307.60;2304.00;;;;;;4845577;29;20041;-85
2021/09/24 08:10:05;;;;;;;17.15;11.27;;;307.80;2304.00;;;;;;4894966;29;20058;-85
2021/09/24 08:13:40;;;;;;;17.58;12.20;;;307.90;2304.00;;;;;;4910655;29;20039;-84
2021/09/24 08:16:38;;;;;;;19.13;12.63;;;308.10;2304.00;;;;;;4930322;28;20169;-84
2021/09/24 08:19:37;;;;;;;19.70;13.07;;;333.00;2329.60;;;;;;4976233;28;20069;-85
2021/09/24 08:22:24;;;;;;;18.55;12.57;;;333.20;2329.60;;;;;;5011904;28;20048;-85
2021/09/24 08:25:17;;;;;;;16.23;11.88;;;333.30;2329.60;;;;;;4980642;28;20038;-86
2021/09/24 08:28:27;;;;;;;20.98;12.57;;;333.50;2329.60;;;;;;5012026;28;20120;-85
2021/09/24 08:31:19;;;;;;;20.30;13.25;;;333.60;2329.60;;;;;;5004962;28;20473;-86
2021/09/24 08:33:52;;;;;;;19.45;13.20;;;358.40;2329.60;;;;;;4992077;28;20041;-85
2021/09/24 08:36:17;;;;;;;21.73;13.55;;;358.50;2329.60;;;;;;5011900;28;20417;-85
2021/09/24 08:38:44;;;;;;;24.80;13.25;;;358.50;2329.60;;;;;;5011745;28;20029;-85
2021/09/24 08:41:10;;;;;;;17.65;13.27;;;358.60;2329.60;;;;;;5013923;28;20026;-85
2021/09/24 08:43:39;;;;;;;19.77;13.15;;;358.80;2329.60;;;;;;5049160;28;20484;-85
2021/09/24 08:46:08;;;;;;;22.25;14.13;;;359.00;2329.60;;;;;;5055350;28;20028;-85
2021/09/24 08:49:30;;;;;;;22.83;15.98;;;358.90;2329.60;;;;;;5055456;28;20086;-84
2021/09/24 08:51:56;;;;;;;21.88;15.32;;;359.00;2329.60;;;;;;4993845;28;20538;-86
2021/09/24 08:54:25;;;;;;;18.77;13.85;;;359.00;2329.60;;;;;;5055759;28;20032;-85
2021/09/24 08:56:52;;;;;;;21.05;16.15;;;384.10;2329.60;;;;;;5055927;28;20032;-86
2021/09/24 08:59:19;;;;;;;18.50;15.00;;;384.30;2329.60;;;;;;5055767;28;20032;-84
2021/09/24 09:02:05;;;;;;;30.05;18.35;;;384.40;2329.60;;;;;;5055771;28;20021;-86
2021/09/24 09:04:34;;;;;;;22.40;16.90;;;384.70;2329.60;;;;;;5055738;28;20036;-84
2021/09/24 09:07:11;;;;;;;21.75;16.85;;;384.70;2329.60;;;;;;5055445;28;20119;-83
2021/09/24 09:09:44;;;;;;;43.33;26.40;;;384.90;2329.60;;;;;;5055254;28;20033;-82
2021/09/24 09:12:15;;;;;;;24.90;18.02;;;409.70;2355.20;;;;;;5055396;28;20112;-82
2021/09/24 09:14:43;;;;;;;19.35;13.35;;;409.80;2355.20;;;;;;5054849;28;20043;-83
2021/09/24 09:17:25;;;;;;;19.42;11.82;;;409.80;2355.20;;;;;;5073659;28;20024;-82
2021/09/24 09:20:15;;;;;;;27.63;14.18;;;409.80;2355.20;;;;;;5072952;28;20395;-82
2021/09/24 09:22:44;;;;;;;17.27;11.18;;;409.90;2355.20;;;;;;5054946;28;20122;-78
2021/09/24 09:25:34;;;;;;;17.95;11.68;;;409.80;2355.20;;;;;;5073120;28;20024;-82
2021/09/24 09:28:04;;;;;;;17.02;12.32;;;409.80;2355.20;;;;;;5072152;28;20033;-81
2021/09/24 09:30:31;;;;;;;17.27;11.35;;;410.10;2355.20;;;;;;5055033;28;20029;-81
2021/09/24 09:33:17;;;;;;;18.58;10.27;;;410.30;2355.20;;;;;;5055085;28;20117;-81
2021/09/24 09:35:53;;;;;;;19.13;10.80;;;410.30;2355.20;;;;;;5054927;28;20032;-81
2021/09/24 09:38:22;;;;;;;15.15;10.50;;;410.50;2355.20;;;;;;5055183;28;20032;-81
2021/09/24 09:41:00;;;;;;;16.02;11.25;;;435.30;2355.20;;;;;;5055000;28;20036;-82
2021/09/24 09:43:32;;;;;;;15.65;10.32;;;435.30;2355.20;;;;;;5072639;28;20032;-82
2021/09/24 09:46:01;;;;;;;15.75;9.93;;;435.60;2355.20;;;;;;5055071;28;20025;-82
2021/09/24 09:48:27;;;;;;;17.58;11.88;;;435.60;2355.20;;;;;;5055047;28;20032;-81
2021/09/24 09:50:53;;;;;;;20.15;14.55;;;435.60;2355.20;;;;;;5054823;28;20029;-84
2021/09/24 09:53:19;;;;;;;18.83;11.50;;;435.60;2355.20;;;;;;5056668;28;20082;-84
2021/09/24 09:55:51;;;;;;;15.60;9.95;;;435.80;2355.20;;;;;;5058669;28;20100;-84
2021/09/24 09:58:19;;;;;;;17.60;11.80;;;435.90;2355.20;;;;;;5058655;28;20115;-84
2021/09/24 10:01:09;;;;;;;16.42;10.45;;;435.90;2355.20;;;;;;5058738;28;20291;-83
2021/09/24 10:03:54;;;;;;;16.92;12.93;;;436.10;2355.20;;;;;;5058511;28;20464;-83
2021/09/24 10:06:23;;;;;;;16.40;11.32;;;460.80;2380.80;;;;;;5058592;28;20461;-83
2021/09/24 10:08:58;;;;;;;16.80;10.55;;;460.90;2380.80;;;;;;5058486;28;20024;-84
2021/09/24 10:11:32;;;;;;;13.75;10.20;;;460.90;2380.80;;;;;;5058544;28;20029;-83
2021/09/24 10:14:09;;;;;;;16.98;11.40;;;460.90;2380.80;;;;;;5058716;28;20028;-83
2021/09/24 10:16:42;;;;;;;12.00;9.45;;;461.10;2380.80;;;;;;5059344;28;20059;-83
2021/09/24 10:19:08;;;;;;;11.93;9.23;;;461.10;2380.80;;;;;;5058179;28;20028;-83
2021/09/24 10:21:35;;;;;;;14.10;11.10;;;461.20;2380.80;;;;;;5058742;28;20024;-83
2021/09/24 10:24:01;;;;;;;17.65;12.27;;;461.30;2380.80;;;;;;5079036;28;20031;-82
2021/09/24 10:26:39;;;;;;;13.73;10.10;;;461.40;2380.80;;;;;;5079081;28;20025;-80
2021/09/24 10:29:10;;;;;;;13.95;9.90;;;461.50;2380.80;;;;;;5057823;28;20029;-83
2021/09/24 10:31:44;;;;;;;16.10;11.80;;;486.40;2380.80;;;;;;5058489;28;20060;-81
2021/09/24 10:34:10;;;;;;;13.70;9.82;;;486.50;2380.80;;;;;;5058286;28;20118;-81
2021/09/24 10:36:44;;;;;;;11.82;8.40;;;486.50;2380.80;;;;;;5057989;28;20047;-80
2021/09/24 10:39:29;;;;;;;16.33;10.95;;;486.80;2380.80;;;;;;5058041;28;20039;-83
2021/09/24 10:42:25;;;;;;;13.70;10.07;;;487.20;2380.80;;;;;;5057959;28;20028;-82
2021/09/24 10:45:20;;;;;;;11.40;8.30;;;487.20;2355.20;;;;;;5058054;28;20054;-82
2021/09/24 10:48:16;;;;;;;10.98;8.45;;;487.30;2278.40;;;;;;5057508;28;20059;-81
2021/09/24 10:51:03;;;;;;;12.18;8.00;;;512.20;2304.00;;;;;;5057785;28;20476;-79
2021/09/24 10:53:47;;;;;;;11.32;9.15;;;512.50;2252.80;;;;;;5057247;28;20468;-79
2021/09/24 10:56:15;;;;;;;10.45;8.43;;;512.90;2252.80;;;;;;5057644;28;20024;-79
2021/09/24 10:58:43;;;;;;;14.93;9.40;;;537.60;2201.60;;;;;;5057543;28;20425;-80
2021/09/24 11:01:31;;;;;;;11.93;8.73;;;537.70;2252.80;;;;;;5075069;28;20029;-81
2021/09/24 11:03:59;;;;;;;11.40;7.88;;;538.00;2201.60;;;;;;5056731;28;20123;-77
2021/09/24 11:06:41;;;;;;;15.02;9.10;;;538.30;2124.80;;;;;;5057035;28;20058;-80
2021/09/24 11:09:12;;;;;;;12.35;9.45;;;563.20;2176.00;;;;;;5075171;28;20033;-77
2021/09/24 11:11:40;;;;;;;10.10;8.35;;;563.60;2150.40;;;;;;5057211;28;20033;-78
2021/09/24 11:14:33;;;;;;;12.95;8.68;;;563.70;2099.20;;;;;;5056725;28;20067;-79
2021/09/24 11:17:00;;;;;;;13.45;8.25;;;564.00;2048.00;;;;;;5056740;28;20056;-78
2021/09/24 11:19:49;;;;;;;11.35;6.97;;;588.90;2022.40;;;;;;5057162;28;20590;-77
2021/09/24 11:22:20;;;;;;;11.80;7.50;;;589.30;1920.00;;;;;;5056988;28;20508;-80
2021/09/24 11:25:05;;;;;;;11.80;6.95;;;589.70;1894.40;;;;;;5057343;28;20487;-79
2021/09/24 11:27:34;;;;;;;8.63;6.65;;;614.50;1894.40;;;;;;5056878;28;20039;-80
2021/09/24 11:30:06;;;;;;;11.35;7.45;;;614.90;1843.20;;;;;;5057107;28;20028;-83
2021/09/24 11:32:43;;;;;;;8.23;4.53;;;615.10;1817.60;;;;;;5075209;28;20021;-78
2021/09/24 11:35:39;;;;;;;13.65;6.72;;;615.00;1740.80;;;;;;5056763;28;20024;-79
2021/09/24 11:38:13;;;;;;;10.55;7.20;;;615.30;1740.80;;;;;;5047840;28;20542;-78
2021/09/24 11:40:39;;;;;;;11.25;6.05;;;640.10;1740.80;;;;;;5056519;28;20032;-79
2021/09/24 11:43:05;;;;;;;12.13;8.65;;;640.10;1740.80;;;;;;5056151;28;20028;-79
2021/09/24 11:45:32;;;;;;;11.10;6.30;;;640.00;1740.80;;;;;;5056420;28;20476;-79
2021/09/24 11:48:04;;;;;;;11.43;8.38;;;640.40;1664.00;;;;;;5056343;28;20097;-78
2021/09/24 11:50:31;;;;;;;14.55;9.57;;;640.40;1638.40;;;;;;5056562;28;20384;-79
2021/09/24 11:53:00;;;;;;;17.00;8.70;;;640.80;1689.60;;;;;;5074770;28;20024;-77
2021/09/24 11:55:34;;;;;;;7.95;6.32;;;640.80;1664.00;;;;;;5056235;28;20417;-78
2021/09/24 11:58:13;;;;;;;7.28;5.15;;;665.60;1638.40;;;;;;5074203;28;20106;-79
2021/09/24 12:00:46;;;;;;;8.60;5.30;;;665.60;1664.00;;;;;;5056366;28;20028;-78
2021/09/24 12:03:28;;;;;;;8.80;5.47;;;665.70;1638.40;;;;;;5056372;28;20056;-79
2021/09/24 12:06:10;;;;;;;19.65;6.85;;;665.90;1664.00;;;;;;5074543;28;20032;-80
2021/09/24 12:08:45;;;;;;;10.57;5.80;;;666.30;1689.60;;;;;;5056716;28;20365;-79
2021/09/24 12:11:22;;;;;;;11.35;5.10;;;691.20;1664.00;;;;;;5056407;28;20062;-78
2021/09/24 12:13:53;;;;;;;11.68;6.18;;;691.30;1561.60;;;;;;5056139;28;20143;-79
2021/09/24 12:16:22;;;;;;;16.15;6.57;;;691.40;1638.40;;;;;;5055622;28;20073;-76
2021/09/24 12:18:52;;;;;;;13.10;8.43;;;691.60;1638.40;;;;;;5065073;28;20029;-77
2021/09/24 12:21:30;;;;;;;8.98;5.25;;;691.60;1612.80;;;;;;5054062;28;20075;-78
2021/09/24 12:23:57;;;;;;;20.95;9.27;;;691.30;1536.00;;;;;;5052393;28;20037;-79
2021/09/24 12:26:36;;;;;;;22.17;14.10;;;691.60;1561.60;;;;;;5052503;28;20066;-79
2021/09/24 12:29:11;;;;;;;17.95;9.95;;;691.70;1612.80;;;;;;5053662;28;20030;-79
2021/09/24 12:31:39;;;;;;;10.20;4.78;;;691.80;1561.60;;;;;;5052178;28;20025;-79
2021/09/24 12:34:07;;;;;;;8.55;4.80;;;691.70;1510.40;;;;;;5053068;28;20029;-76
2021/09/24 12:36:33;;;;;;;8.50;5.10;;;691.80;1561.60;;;;;;5053873;28;20032;-78
2021/09/24 12:39:17;;;;;;;7.13;4.35;;;691.80;1484.80;;;;;;5054146;28;20104;-76
2021/09/24 12:41:43;;;;;;;5.13;3.38;;;691.90;1459.20;;;;;;5054013;28;20028;-78
2021/09/24 12:44:10;;;;;;;5.47;3.63;;;691.90;1459.20;;;;;;5053444;28;20033;-77
2021/09/24 12:46:48;;;;;;;7.97;3.90;;;691.80;1459.20;;;;;;5053418;28;20087;-77
2021/09/24 12:49:15;;;;;;;6.57;3.90;;;691.90;1484.80;;;;;;5052695;28;20037;-77
2021/09/24 12:51:42;;;;;;;7.10;3.80;;;691.70;1459.20;;;;;;5052556;28;20025;-76
2021/09/24 12:54:09;;;;;;;7.68;4.10;;;691.70;1433.60;;;;;;5054140;28;20025;-78
2021/09/24 12:56:36;;;;;;;5.00;3.58;;;691.80;1459.20;;;;;;5055612;28;20425;-77
2021/09/24 12:59:06;;;;;;;6.10;3.25;;;691.80;1433.60;;;;;;5055677;28;20403;-77
2021/09/24 13:01:32;;;;;;;13.25;4.20;;;692.10;1433.60;;;;;;5056279;28;20024;-78
2021/09/24 13:03:58;;;;;;;5.10;3.33;;;716.80;1459.20;;;;;;5056391;28;20028;-77
2021/09/24 13:06:26;;;;;;;6.63;3.83;;;716.80;1459.20;;;;;;5056081;28;20039;-77
2021/09/24 13:08:54;;;;;;;6.18;3.40;;;717.00;1484.80;;;;;;5055840;28;20079;-78
2021/09/24 13:11:31;;;;;;;9.63;4.03;;;717.10;1433.60;;;;;;5055862;28;20036;-76
2021/09/24 13:13:59;;;;;;;6.63;3.72;;;717.10;1433.60;;;;;;5055200;28;20036;-78
2021/09/24 13:16:27;;;;;;;8.07;3.83;;;717.10;1433.60;;;;;;5040617;28;20229;-78
2021/09/24 13:18:55;;;;;;;5.72;3.80;;;717.10;1408.00;;;;;;5035019;28;20021;-75
2021/09/24 13:21:22;;;;;;;6.38;3.88;;;717.00;1408.00;;;;;;5053389;28;20546;-77
2021/09/24 13:23:54;;;;;;;6.75;4.63;;;717.10;1408.00;;;;;;5035170;28;20036;-77
2021/09/24 13:26:24;;;;;;;9.77;7.97;;;717.20;1408.00;;;;;;5052843;28;20017;-76
2021/09/24 13:28:50;;;;;;;8.73;4.50;;;717.40;1484.80;;;;;;5037199;28;20096;-76
2021/09/24 13:31:17;;;;;;;10.75;5.95;;;717.50;1459.20;;;;;;5056490;28;20068;-78
2021/09/24 13:33:44;;;;;;;11.25;5.80;;;717.20;1433.60;;;;;;5038624;28;20032;-78
2021/09/24 13:36:10;;;;;;;8.93;6.65;;;717.60;1433.60;;;;;;5038822;28;20392;-78
2021/09/24 13:38:36;;;;;;;7.88;6.28;;;717.50;1408.00;;;;;;5038761;28;20025;-78
2021/09/24 13:41:03;;;;;;;8.32;6.82;;;717.40;1408.00;;;;;;5038616;28;20491;-76
2021/09/24 13:43:29;;;;;;;7.53;5.57;;;717.40;1408.00;;;;;;5056631;28;20027;-77
2021/09/24 13:45:55;;;;;;;9.65;6.22;;;717.60;1459.20;;;;;;5038531;28;20465;-76
2021/09/24 13:48:21;;;;;;;14.45;8.77;;;742.40;1433.60;;;;;;5038332;28;20025;-74
2021/09/24 13:50:47;;;;;;;13.48;8.60;;;717.70;1484.80;;;;;;5057739;28;20487;-78
2021/09/24 13:53:14;;;;;;;16.65;7.72;;;742.40;1459.20;;;;;;5056449;28;20469;-75
2021/09/24 13:55:41;;;;;;;8.85;6.50;;;717.50;1459.20;;;;;;5038250;28;20025;-76
2021/09/24 13:58:07;;;;;;;11.85;7.90;;;717.40;1484.80;;;;;;5038659;28;20457;-77
2021/09/24 14:00:33;;;;;;;18.13;11.30;;;717.30;1484.80;;;;;;5038480;28;20465;-74
2021/09/24 14:03:00;;;;;;;9.10;6.22;;;692.00;1536.00;;;;;;5055934;28;20075;-77
2021/09/24 14:05:25;;;;;;;10.52;7.80;;;716.80;1510.40;;;;;;5056052;28;20397;-74
2021/09/24 14:07:51;;;;;;;10.27;6.85;;;717.00;1536.00;;;;;;5043884;28;20032;-75
2021/09/24 14:10:18;;;;;;;11.43;7.80;;;717.00;1536.00;;;;;;5038129;28;20037;-75
2021/09/24 14:12:45;;;;;;;8.15;5.10;;;716.90;1510.40;;;;;;5043899;28;20025;-77
2021/09/24 14:15:12;;;;;;;15.57;8.65;;;717.00;1510.40;;;;;;5061393;28;20040;-76
2021/09/24 14:17:38;;;;;;;13.95;8.68;;;716.80;1536.00;;;;;;5058036;28;20024;-79